Sheffield, Pennsylvania
Current Conditions -  °F | °C
As of 1:53 PM on Monday 20 Oct 2014 (Local Time) from KBFD Reporting Station
Overcast Overcast  
Wind Chill: 51°   Ceiling: 11000
Heat Index: 51°   Visibility: 10mi
Dew Point: 38°   Wind: 7mph
Humidity: 61%   Direction: NA
Pressure: 29.87"   Gusts: 17mph
Location:  41.7°N, 79.04°W
Report Text: KBFD 201753Z AUTO VRB06G15KT 10SM OVC110 11/03 A2987 RMK AO2 SLP123 T01060033 10106 20044 58025
Loading
Personal Weather Stations






























Interactive Weather Map
Tropical Storm Tracking
New forecast layout! Learn more

10-Day Weather Forecast

Advertisements
Track Severe Weather on mobile